sensor_id;sensor_type;location;lat;lon;timestamp;temperature;humidity
31387;DHT22;69978;50.096;8.448;2023-05-09T00:00:48;14.50;99.90
31387;DHT22;69978;50.096;8.448;2023-05-09T00:03:13;14.50;99.90
31387;DHT22;69978;50.096;8.448;2023-05-09T00:05:39;14.60;99.90
31387;DHT22;69978;50.096;8.448;2023-05-09T00:08:06;14.50;99.90
31387;DHT22;69978;50.096;8.448;2023-05-09T00:10:31;14.60;99.90
31387;DHT22;69978;50.096;8.448;2023-05-09T00:12:57;14.60;99.90
31387;DHT22;69978;50.096;8.448;2023-05-09T00:15:24;14.50;99.90
31387;DHT22;69978;50.096;8.448;2023-05-09T00:17:50;14.60;99.90
31387;DHT22;69978;50.096;8.448;2023-05-09T00:20:16;14.60;99.90
31387;DHT22;69978;50.096;8.448;2023-05-09T00:22:42;14.60;99.90
31387;DHT22;69978;50.096;8.448;2023-05-09T00:25:09;14.60;99.90
31387;DHT22;69978;50.096;8.448;2023-05-09T00:27:34;14.60;99.90
31387;DHT22;69978;50.096;8.448;2023-05-09T00:30:00;14.60;99.90
31387;DHT22;69978;50.096;8.448;2023-05-09T00:32:26;14.60;99.90
31387;DHT22;69978;50.096;8.448;2023-05-09T00:34:59;14.60;99.90
31387;DHT22;69978;50.096;8.448;2023-05-09T00:37:30;14.60;99.90
31387;DHT22;69978;50.096;8.448;2023-05-09T00:39:56;14.60;99.90
31387;DHT22;69978;50.096;8.448;2023-05-09T00:42:22;14.70;99.90
31387;DHT22;69978;50.096;8.448;2023-05-09T00:44:47;14.60;99.90
31387;DHT22;69978;50.096;8.448;2023-05-09T00:47:13;14.60;99.90
31387;DHT22;69978;50.096;8.448;2023-05-09T00:49:38;14.60;99.90
31387;DHT22;69978;50.096;8.448;2023-05-09T00:52:04;14.60;99.90
31387;DHT22;69978;50.096;8.448;2023-05-09T00:54:30;14.60;99.90
31387;DHT22;69978;50.096;8.448;2023-05-09T00:56:55;14.70;99.90
31387;DHT22;69978;50.096;8.448;2023-05-09T00:59:34;14.70;99.90
31387;DHT22;69978;50.096;8.448;2023-05-09T01:02:00;14.60;99.90
31387;DHT22;69978;50.096;8.448;2023-05-09T01:04:25;14.60;99.90
31387;DHT22;69978;50.096;8.448;2023-05-09T01:07:07;14.60;99.90
31387;DHT22;69978;50.096;8.448;2023-05-09T01:12:19;14.60;99.90
31387;DHT22;69978;50.096;8.448;2023-05-09T01:17:39;14.60;99.90
31387;DHT22;69978;50.096;8.448;2023-05-09T01:20:19;14.60;99.90
31387;DHT22;69978;50.096;8.448;2023-05-09T01:22:54;14.60;99.90
31387;DHT22;69978;50.096;8.448;2023-05-09T01:28:06;14.60;99.90
31387;DHT22;69978;50.096;8.448;2023-05-09T01:30:33;14.60;99.90
31387;DHT22;69978;50.096;8.448;2023-05-09T01:33:05;14.60;99.90
31387;DHT22;69978;50.096;8.448;2023-05-09T01:35:32;14.50;99.90
31387;DHT22;69978;50.096;8.448;2023-05-09T01:38:01;14.50;99.90
31387;DHT22;69978;50.096;8.448;2023-05-09T01:40:30;14.50;99.90
31387;DHT22;69978;50.096;8.448;2023-05-09T01:43:01;14.50;99.90
31387;DHT22;69978;50.096;8.448;2023-05-09T01:45:48;14.50;99.90
31387;DHT22;69978;50.096;8.448;2023-05-09T01:48:16;14.50;99.90
31387;DHT22;69978;50.096;8.448;2023-05-09T01:50:42;14.40;99.90
31387;DHT22;69978;50.096;8.448;2023-05-09T01:53:10;14.40;99.90
31387;DHT22;69978;50.096;8.448;2023-05-09T01:55:36;14.40;99.90
31387;DHT22;69978;50.096;8.448;2023-05-09T01:58:04;14.40;99.90
31387;DHT22;69978;50.096;8.448;2023-05-09T02:00:39;14.30;99.90
31387;DHT22;69978;50.096;8.448;2023-05-09T02:03:05;14.30;99.90
31387;DHT22;69978;50.096;8.448;2023-05-09T02:05:31;14.20;99.90
31387;DHT22;69978;50.096;8.448;2023-05-09T02:07:58;14.20;99.90
31387;DHT22;69978;50.096;8.448;2023-05-09T02:10:26;14.20;99.90
31387;DHT22;69978;50.096;8.448;2023-05-09T02:12:52;14.20;99.90
31387;DHT22;69978;50.096;8.448;2023-05-09T02:15:18;14.20;99.90
31387;DHT22;69978;50.096;8.448;2023-05-09T02:17:43;14.10;99.90
31387;DHT22;69978;50.096;8.448;2023-05-09T02:20:10;14.20;99.90
31387;DHT22;69978;50.096;8.448;2023-05-09T02:22:37;14.20;99.90
31387;DHT22;69978;50.096;8.448;2023-05-09T02:25:04;14.20;99.90
31387;DHT22;69978;50.096;8.448;2023-05-09T02:27:33;14.20;99.90
31387;DHT22;69978;50.096;8.448;2023-05-09T02:30:02;14.20;99.90
31387;DHT22;69978;50.096;8.448;2023-05-09T02:32:30;14.20;99.90
31387;DHT22;69978;50.096;8.448;2023-05-09T02:34:57;14.20;99.90
31387;DHT22;69978;50.096;8.448;2023-05-09T02:37:23;14.20;99.90
31387;DHT22;69978;50.096;8.448;2023-05-09T02:39:50;14.30;99.90
31387;DHT22;69978;50.096;8.448;2023-05-09T02:42:21;14.30;99.90
31387;DHT22;69978;50.096;8.448;2023-05-09T02:44:52;14.30;99.90
31387;DHT22;69978;50.096;8.448;2023-05-09T02:47:18;14.20;99.90
31387;DHT22;69978;50.096;8.448;2023-05-09T02:49:43;14.20;99.90
31387;DHT22;69978;50.096;8.448;2023-05-09T02:52:09;14.20;99.90
31387;DHT22;69978;50.096;8.448;2023-05-09T02:54:36;14.20;99.90
31387;DHT22;69978;50.096;8.448;2023-05-09T02:57:01;14.20;99.90
31387;DHT22;69978;50.096;8.448;2023-05-09T02:59:27;14.20;99.90
31387;DHT22;69978;50.096;8.448;2023-05-09T03:01:53;14.20;99.90
31387;DHT22;69978;50.096;8.448;2023-05-09T03:04:18;14.20;99.90
31387;DHT22;69978;50.096;8.448;2023-05-09T03:06:44;14.20;99.90
31387;DHT22;69978;50.096;8.448;2023-05-09T03:09:10;14.20;99.90
31387;DHT22;69978;50.096;8.448;2023-05-09T03:11:36;14.20;99.90
31387;DHT22;69978;50.096;8.448;2023-05-09T03:14:02;14.20;99.90
31387;DHT22;69978;50.096;8.448;2023-05-09T03:16:27;14.20;99.90
31387;DHT22;69978;50.096;8.448;2023-05-09T03:18:53;14.10;99.90
31387;DHT22;69978;50.096;8.448;2023-05-09T03:21:19;14.10;99.90
31387;DHT22;69978;50.096;8.448;2023-05-09T03:23:44;14.10;99.90
31387;DHT22;69978;50.096;8.448;2023-05-09T03:26:10;14.00;99.90
31387;DHT22;69978;50.096;8.448;2023-05-09T03:28:37;14.00;99.90
31387;DHT22;69978;50.096;8.448;2023-05-09T03:31:02;14.00;99.90
31387;DHT22;69978;50.096;8.448;2023-05-09T03:33:28;13.90;99.90
31387;DHT22;69978;50.096;8.448;2023-05-09T03:35:54;13.80;99.90
31387;DHT22;69978;50.096;8.448;2023-05-09T03:38:20;13.70;99.90
31387;DHT22;69978;50.096;8.448;2023-05-09T03:40:48;13.70;99.90
31387;DHT22;69978;50.096;8.448;2023-05-09T03:43:14;13.70;99.90
31387;DHT22;69978;50.096;8.448;2023-05-09T03:45:40;13.70;99.90
31387;DHT22;69978;50.096;8.448;2023-05-09T03:48:05;13.70;99.90
31387;DHT22;69978;50.096;8.448;2023-05-09T03:50:34;13.70;99.90
31387;DHT22;69978;50.096;8.448;2023-05-09T03:52:59;13.70;99.90
31387;DHT22;69978;50.096;8.448;2023-05-09T03:55:25;13.70;99.90
31387;DHT22;69978;50.096;8.448;2023-05-09T03:57:51;13.70;99.90
31387;DHT22;69978;50.096;8.448;2023-05-09T04:00:16;13.70;99.90
31387;DHT22;69978;50.096;8.448;2023-05-09T04:02:42;13.70;99.90
31387;DHT22;69978;50.096;8.448;2023-05-09T04:05:08;13.70;99.90
31387;DHT22;69978;50.096;8.448;2023-05-09T04:07:33;13.70;99.90
31387;DHT22;69978;50.096;8.448;2023-05-09T04:09:59;13.70;99.90
31387;DHT22;69978;50.096;8.448;2023-05-09T04:12:24;13.70;99.90
31387;DHT22;69978;50.096;8.448;2023-05-09T04:14:50;13.70;99.90
31387;DHT22;69978;50.096;8.448;2023-05-09T04:17:16;13.80;99.90
31387;DHT22;69978;50.096;8.448;2023-05-09T04:19:42;13.80;99.90
31387;DHT22;69978;50.096;8.448;2023-05-09T04:22:08;13.90;99.90
31387;DHT22;69978;50.096;8.448;2023-05-09T04:24:33;13.90;99.90
31387;DHT22;69978;50.096;8.448;2023-05-09T04:26:59;13.90;99.90
31387;DHT22;69978;50.096;8.448;2023-05-09T04:29:25;13.90;99.90
31387;DHT22;69978;50.096;8.448;2023-05-09T04:31:50;14.00;99.90
31387;DHT22;69978;50.096;8.448;2023-05-09T04:34:16;14.10;99.90
31387;DHT22;69978;50.096;8.448;2023-05-09T04:36:42;14.10;99.90
31387;DHT22;69978;50.096;8.448;2023-05-09T04:39:07;14.10;99.90
31387;DHT22;69978;50.096;8.448;2023-05-09T04:41:34;14.20;99.90
31387;DHT22;69978;50.096;8.448;2023-05-09T04:44:00;14.20;99.90
31387;DHT22;69978;50.096;8.448;2023-05-09T04:46:26;14.30;99.90
31387;DHT22;69978;50.096;8.448;2023-05-09T04:48:52;14.20;99.90
31387;DHT22;69978;50.096;8.448;2023-05-09T04:51:17;14.30;99.90
31387;DHT22;69978;50.096;8.448;2023-05-09T04:53:47;14.30;99.90
31387;DHT22;69978;50.096;8.448;2023-05-09T04:56:13;14.30;99.90
31387;DHT22;69978;50.096;8.448;2023-05-09T04:58:41;14.40;99.90
31387;DHT22;69978;50.096;8.448;2023-05-09T05:01:07;14.40;99.90
31387;DHT22;69978;50.096;8.448;2023-05-09T05:03:32;14.50;99.90
31387;DHT22;69978;50.096;8.448;2023-05-09T05:05:58;14.50;99.90
31387;DHT22;69978;50.096;8.448;2023-05-09T05:08:24;14.50;99.90
31387;DHT22;69978;50.096;8.448;2023-05-09T05:10:49;14.60;99.90
31387;DHT22;69978;50.096;8.448;2023-05-09T05:13:15;14.60;99.90
31387;DHT22;69978;50.096;8.448;2023-05-09T05:15:41;14.60;99.90
31387;DHT22;69978;50.096;8.448;2023-05-09T05:18:07;14.70;99.90
31387;DHT22;69978;50.096;8.448;2023-05-09T05:20:33;14.80;99.90
31387;DHT22;69978;50.096;8.448;2023-05-09T05:22:59;14.80;99.90
31387;DHT22;69978;50.096;8.448;2023-05-09T05:25:25;14.90;99.90
31387;DHT22;69978;50.096;8.448;2023-05-09T05:27:51;14.90;99.90
31387;DHT22;69978;50.096;8.448;2023-05-09T05:30:16;15.00;99.90
31387;DHT22;69978;50.096;8.448;2023-05-09T05:32:42;15.00;99.90
31387;DHT22;69978;50.096;8.448;2023-05-09T05:35:09;15.10;99.90
31387;DHT22;69978;50.096;8.448;2023-05-09T05:37:39;15.20;99.90
31387;DHT22;69978;50.096;8.448;2023-05-09T05:40:05;15.20;99.90
31387;DHT22;69978;50.096;8.448;2023-05-09T05:42:31;15.30;99.90
31387;DHT22;69978;50.096;8.448;2023-05-09T05:44:57;15.40;99.90
31387;DHT22;69978;50.096;8.448;2023-05-09T05:47:32;15.50;99.90
31387;DHT22;69978;50.096;8.448;2023-05-09T05:50:01;15.60;99.90
31387;DHT22;69978;50.096;8.448;2023-05-09T05:52:28;15.70;99.90
31387;DHT22;69978;50.096;8.448;2023-05-09T05:54:53;15.80;99.90
31387;DHT22;69978;50.096;8.448;2023-05-09T05:57:19;15.90;99.90
31387;DHT22;69978;50.096;8.448;2023-05-09T05:59:49;16.00;99.90
31387;DHT22;69978;50.096;8.448;2023-05-09T06:02:18;16.10;99.90
31387;DHT22;69978;50.096;8.448;2023-05-09T06:04:43;16.10;99.90
31387;DHT22;69978;50.096;8.448;2023-05-09T06:07:12;16.10;99.90
31387;DHT22;69978;50.096;8.448;2023-05-09T06:09:40;16.10;99.90
31387;DHT22;69978;50.096;8.448;2023-05-09T06:12:06;16.10;99.90
31387;DHT22;69978;50.096;8.448;2023-05-09T06:14:32;16.20;99.90
31387;DHT22;69978;50.096;8.448;2023-05-09T06:16:58;16.20;99.90
31387;DHT22;69978;50.096;8.448;2023-05-09T06:19:23;16.30;99.90
31387;DHT22;69978;50.096;8.448;2023-05-09T06:21:49;16.30;99.90
31387;DHT22;69978;50.096;8.448;2023-05-09T06:24:15;16.40;99.90
31387;DHT22;69978;50.096;8.448;2023-05-09T06:26:41;16.50;99.90
31387;DHT22;69978;50.096;8.448;2023-05-09T06:29:06;16.50;99.90
31387;DHT22;69978;50.096;8.448;2023-05-09T06:31:33;16.60;99.90
31387;DHT22;69978;50.096;8.448;2023-05-09T06:34:03;16.70;99.90
31387;DHT22;69978;50.096;8.448;2023-05-09T06:36:29;16.70;99.90
31387;DHT22;69978;50.096;8.448;2023-05-09T06:38:55;16.80;99.90
31387;DHT22;69978;50.096;8.448;2023-05-09T06:41:20;16.80;99.90
31387;DHT22;69978;50.096;8.448;2023-05-09T06:43:46;16.90;99.90
31387;DHT22;69978;50.096;8.448;2023-05-09T06:46:11;17.00;99.90
31387;DHT22;69978;50.096;8.448;2023-05-09T06:48:37;17.00;99.90
31387;DHT22;69978;50.096;8.448;2023-05-09T06:51:02;17.00;99.90
31387;DHT22;69978;50.096;8.448;2023-05-09T06:53:46;17.00;99.90
31387;DHT22;69978;50.096;8.448;2023-05-09T06:56:12;17.10;99.90
31387;DHT22;69978;50.096;8.448;2023-05-09T06:58:37;17.10;99.90
31387;DHT22;69978;50.096;8.448;2023-05-09T07:01:03;17.10;99.90
31387;DHT22;69978;50.096;8.448;2023-05-09T07:03:29;17.10;99.90
31387;DHT22;69978;50.096;8.448;2023-05-09T07:05:55;17.20;99.90
31387;DHT22;69978;50.096;8.448;2023-05-09T07:08:23;17.20;99.90
31387;DHT22;69978;50.096;8.448;2023-05-09T07:10:49;17.20;99.90
31387;DHT22;69978;50.096;8.448;2023-05-09T07:13:15;17.20;99.90
31387;DHT22;69978;50.096;8.448;2023-05-09T07:15:40;17.20;99.90
31387;DHT22;69978;50.096;8.448;2023-05-09T07:18:06;17.40;99.90
31387;DHT22;69978;50.096;8.448;2023-05-09T07:20:32;17.40;99.90
31387;DHT22;69978;50.096;8.448;2023-05-09T07:22:57;17.60;99.90
31387;DHT22;69978;50.096;8.448;2023-05-09T07:25:23;17.60;99.90
31387;DHT22;69978;50.096;8.448;2023-05-09T07:27:49;17.60;99.90
31387;DHT22;69978;50.096;8.448;2023-05-09T07:30:14;17.60;99.90
31387;DHT22;69978;50.096;8.448;2023-05-09T07:32:40;17.50;99.90
31387;DHT22;69978;50.096;8.448;2023-05-09T07:35:07;17.50;99.90
31387;DHT22;69978;50.096;8.448;2023-05-09T07:37:33;17.60;99.90
31387;DHT22;69978;50.096;8.448;2023-05-09T07:39:59;17.60;99.90
31387;DHT22;69978;50.096;8.448;2023-05-09T07:42:24;17.70;99.90
31387;DHT22;69978;50.096;8.448;2023-05-09T07:44:50;17.80;99.90
31387;DHT22;69978;50.096;8.448;2023-05-09T07:47:16;17.80;99.90
31387;DHT22;69978;50.096;8.448;2023-05-09T07:49:41;17.80;99.90
31387;DHT22;69978;50.096;8.448;2023-05-09T07:52:08;17.70;99.90
31387;DHT22;69978;50.096;8.448;2023-05-09T07:54:33;17.60;99.90
31387;DHT22;69978;50.096;8.448;2023-05-09T07:56:59;17.50;99.90
31387;DHT22;69978;50.096;8.448;2023-05-09T07:59:25;17.50;99.90
31387;DHT22;69978;50.096;8.448;2023-05-09T08:01:50;17.40;99.90
31387;DHT22;69978;50.096;8.448;2023-05-09T08:04:16;17.30;99.90
31387;DHT22;69978;50.096;8.448;2023-05-09T08:06:41;17.30;99.90
31387;DHT22;69978;50.096;8.448;2023-05-09T08:09:07;17.30;99.90
31387;DHT22;69978;50.096;8.448;2023-05-09T08:11:33;17.30;99.90
31387;DHT22;69978;50.096;8.448;2023-05-09T08:14:00;17.30;99.90
31387;DHT22;69978;50.096;8.448;2023-05-09T08:16:26;17.20;99.90
31387;DHT22;69978;50.096;8.448;2023-05-09T08:18:51;17.30;99.90
31387;DHT22;69978;50.096;8.448;2023-05-09T08:21:17;17.30;99.90
31387;DHT22;69978;50.096;8.448;2023-05-09T08:23:43;17.30;99.90
31387;DHT22;69978;50.096;8.448;2023-05-09T08:26:08;17.30;99.90
31387;DHT22;69978;50.096;8.448;2023-05-09T08:28:34;17.30;99.90
31387;DHT22;69978;50.096;8.448;2023-05-09T08:30:59;17.20;99.90
31387;DHT22;69978;50.096;8.448;2023-05-09T08:33:25;17.30;99.90
31387;DHT22;69978;50.096;8.448;2023-05-09T08:35:51;17.30;99.90
31387;DHT22;69978;50.096;8.448;2023-05-09T08:38:17;17.30;99.90
31387;DHT22;69978;50.096;8.448;2023-05-09T08:40:43;17.40;99.90
31387;DHT22;69978;50.096;8.448;2023-05-09T08:43:11;17.50;99.90
31387;DHT22;69978;50.096;8.448;2023-05-09T08:45:45;17.50;99.90
31387;DHT22;69978;50.096;8.448;2023-05-09T08:48:17;17.40;99.90
31387;DHT22;69978;50.096;8.448;2023-05-09T08:50:43;17.40;99.90
31387;DHT22;69978;50.096;8.448;2023-05-09T08:53:19;17.40;99.90
31387;DHT22;69978;50.096;8.448;2023-05-09T08:55:46;17.30;99.90
31387;DHT22;69978;50.096;8.448;2023-05-09T08:58:12;17.30;99.90
31387;DHT22;69978;50.096;8.448;2023-05-09T09:00:40;17.40;99.90
31387;DHT22;69978;50.096;8.448;2023-05-09T09:03:06;17.30;99.90
31387;DHT22;69978;50.096;8.448;2023-05-09T09:05:36;17.40;99.90
31387;DHT22;69978;50.096;8.448;2023-05-09T09:08:03;17.40;99.90
31387;DHT22;69978;50.096;8.448;2023-05-09T09:10:32;17.40;99.90
31387;DHT22;69978;50.096;8.448;2023-05-09T09:12:59;17.50;99.90
31387;DHT22;69978;50.096;8.448;2023-05-09T09:15:29;17.40;99.90
31387;DHT22;69978;50.096;8.448;2023-05-09T09:17:59;17.40;99.90
31387;DHT22;69978;50.096;8.448;2023-05-09T09:20:30;17.30;99.90
31387;DHT22;69978;50.096;8.448;2023-05-09T09:22:59;17.30;99.90
31387;DHT22;69978;50.096;8.448;2023-05-09T09:25:27;17.20;99.90
31387;DHT22;69978;50.096;8.448;2023-05-09T09:27:53;17.30;99.90
31387;DHT22;69978;50.096;8.448;2023-05-09T09:30:18;17.20;99.90
31387;DHT22;69978;50.096;8.448;2023-05-09T09:32:44;17.30;99.90
31387;DHT22;69978;50.096;8.448;2023-05-09T09:35:10;17.30;99.90
31387;DHT22;69978;50.096;8.448;2023-05-09T09:37:37;17.30;99.90
31387;DHT22;69978;50.096;8.448;2023-05-09T09:40:06;17.40;99.90
31387;DHT22;69978;50.096;8.448;2023-05-09T09:42:47;17.30;99.90
31387;DHT22;69978;50.096;8.448;2023-05-09T09:45:15;17.30;99.90
31387;DHT22;69978;50.096;8.448;2023-05-09T09:47:45;17.40;99.90
31387;DHT22;69978;50.096;8.448;2023-05-09T09:50:18;17.40;99.90
31387;DHT22;69978;50.096;8.448;2023-05-09T09:52:50;17.50;99.90
31387;DHT22;69978;50.096;8.448;2023-05-09T09:55:20;17.60;99.90
31387;DHT22;69978;50.096;8.448;2023-05-09T09:57:47;17.60;99.90
31387;DHT22;69978;50.096;8.448;2023-05-09T10:00:23;17.70;99.90
31387;DHT22;69978;50.096;8.448;2023-05-09T10:02:54;17.80;99.90
31387;DHT22;69978;50.096;8.448;2023-05-09T10:05:27;18.00;99.90
31387;DHT22;69978;50.096;8.448;2023-05-09T10:07:56;18.30;99.90
31387;DHT22;69978;50.096;8.448;2023-05-09T10:10:28;18.40;99.90
31387;DHT22;69978;50.096;8.448;2023-05-09T10:12:56;18.40;99.90
31387;DHT22;69978;50.096;8.448;2023-05-09T10:15:23;18.60;99.90
31387;DHT22;69978;50.096;8.448;2023-05-09T10:17:55;18.80;99.90
31387;DHT22;69978;50.096;8.448;2023-05-09T10:20:22;18.90;99.90
31387;DHT22;69978;50.096;8.448;2023-05-09T10:22:48;19.00;99.90
31387;DHT22;69978;50.096;8.448;2023-05-09T10:25:19;18.90;99.90
31387;DHT22;69978;50.096;8.448;2023-05-09T10:27:47;18.90;99.90
31387;DHT22;69978;50.096;8.448;2023-05-09T10:30:17;18.80;99.90
31387;DHT22;69978;50.096;8.448;2023-05-09T10:35:17;18.60;99.90
31387;DHT22;69978;50.096;8.448;2023-05-09T10:37:47;18.60;99.90
31387;DHT22;69978;50.096;8.448;2023-05-09T10:40:12;18.60;99.90
31387;DHT22;69978;50.096;8.448;2023-05-09T10:42:43;18.60;99.90
31387;DHT22;69978;50.096;8.448;2023-05-09T10:45:10;18.60;99.90
31387;DHT22;69978;50.096;8.448;2023-05-09T10:47:37;18.60;99.90
31387;DHT22;69978;50.096;8.448;2023-05-09T10:50:03;18.60;99.90
31387;DHT22;69978;50.096;8.448;2023-05-09T10:52:32;18.60;99.90
31387;DHT22;69978;50.096;8.448;2023-05-09T10:55:00;18.60;99.90
31387;DHT22;69978;50.096;8.448;2023-05-09T10:57:27;18.50;99.90
31387;DHT22;69978;50.096;8.448;2023-05-09T10:59:54;18.50;99.90
31387;DHT22;69978;50.096;8.448;2023-05-09T11:02:21;18.50;99.90
31387;DHT22;69978;50.096;8.448;2023-05-09T11:07:39;19.10;99.90
31387;DHT22;69978;50.096;8.448;2023-05-09T11:10:17;19.20;99.90
31387;DHT22;69978;50.096;8.448;2023-05-09T11:12:57;19.30;99.90
31387;DHT22;69978;50.096;8.448;2023-05-09T11:15:23;19.20;99.90
31387;DHT22;69978;50.096;8.448;2023-05-09T11:18:24;19.10;99.90
31387;DHT22;69978;50.096;8.448;2023-05-09T11:20:50;19.10;99.90
31387;DHT22;69978;50.096;8.448;2023-05-09T11:23:25;19.10;99.90
31387;DHT22;69978;50.096;8.448;2023-05-09T11:25:51;19.10;99.90
31387;DHT22;69978;50.096;8.448;2023-05-09T11:28:28;19.10;99.90
31387;DHT22;69978;50.096;8.448;2023-05-09T11:33:35;18.90;99.90
31387;DHT22;69978;50.096;8.448;2023-05-09T11:38:44;18.60;99.90
31387;DHT22;69978;50.096;8.448;2023-05-09T11:41:10;17.90;99.90
31387;DHT22;69978;50.096;8.448;2023-05-09T11:43:37;17.70;99.90
31387;DHT22;69978;50.096;8.448;2023-05-09T11:46:03;17.60;99.90
31387;DHT22;69978;50.096;8.448;2023-05-09T11:48:29;17.50;99.90
31387;DHT22;69978;50.096;8.448;2023-05-09T11:50:54;17.60;99.90
31387;DHT22;69978;50.096;8.448;2023-05-09T11:53:39;17.70;99.90
31387;DHT22;69978;50.096;8.448;2023-05-09T11:56:13;17.70;99.90
31387;DHT22;69978;50.096;8.448;2023-05-09T11:58:39;17.90;99.90
31387;DHT22;69978;50.096;8.448;2023-05-09T12:01:05;18.30;99.90
31387;DHT22;69978;50.096;8.448;2023-05-09T12:03:31;18.70;99.90
31387;DHT22;69978;50.096;8.448;2023-05-09T12:05:57;18.30;99.90
31387;DHT22;69978;50.096;8.448;2023-05-09T12:08:23;18.60;99.90
31387;DHT22;69978;50.096;8.448;2023-05-09T12:10:49;19.00;99.90
31387;DHT22;69978;50.096;8.448;2023-05-09T12:13:15;19.40;99.90
31387;DHT22;69978;50.096;8.448;2023-05-09T12:15:42;19.80;99.90
31387;DHT22;69978;50.096;8.448;2023-05-09T12:18:08;19.90;99.90
31387;DHT22;69978;50.096;8.448;2023-05-09T12:20:44;20.00;99.90
31387;DHT22;69978;50.096;8.448;2023-05-09T12:23:11;20.20;99.90
31387;DHT22;69978;50.096;8.448;2023-05-09T12:25:39;20.50;99.90
31387;DHT22;69978;50.096;8.448;2023-05-09T12:28:05;20.50;99.90
31387;DHT22;69978;50.096;8.448;2023-05-09T12:30:31;20.60;99.90
31387;DHT22;69978;50.096;8.448;2023-05-09T12:32:57;20.50;99.90
31387;DHT22;69978;50.096;8.448;2023-05-09T12:35:23;20.40;99.90
31387;DHT22;69978;50.096;8.448;2023-05-09T12:37:55;20.90;99.90
31387;DHT22;69978;50.096;8.448;2023-05-09T12:40:22;21.00;99.90
31387;DHT22;69978;50.096;8.448;2023-05-09T12:42:48;21.10;99.90
31387;DHT22;69978;50.096;8.448;2023-05-09T12:45:13;21.20;99.90
31387;DHT22;69978;50.096;8.448;2023-05-09T12:47:40;20.90;99.90
31387;DHT22;69978;50.096;8.448;2023-05-09T12:50:10;20.80;99.90
31387;DHT22;69978;50.096;8.448;2023-05-09T12:52:38;20.80;99.90
31387;DHT22;69978;50.096;8.448;2023-05-09T12:57:33;20.80;99.90
31387;DHT22;69978;50.096;8.448;2023-05-09T12:59:59;20.60;99.90
31387;DHT22;69978;50.096;8.448;2023-05-09T13:02:26;20.50;99.90
31387;DHT22;69978;50.096;8.448;2023-05-09T13:05:09;20.30;99.90
31387;DHT22;69978;50.096;8.448;2023-05-09T13:07:43;20.30;99.90
31387;DHT22;69978;50.096;8.448;2023-05-09T13:10:22;20.10;99.90
31387;DHT22;69978;50.096;8.448;2023-05-09T13:12:49;20.00;99.90
31387;DHT22;69978;50.096;8.448;2023-05-09T13:15:16;19.90;99.90
31387;DHT22;69978;50.096;8.448;2023-05-09T13:17:45;19.80;99.90
31387;DHT22;69978;50.096;8.448;2023-05-09T13:20:11;19.70;99.90
31387;DHT22;69978;50.096;8.448;2023-05-09T13:22:36;19.60;99.90
31387;DHT22;69978;50.096;8.448;2023-05-09T13:25:03;19.60;99.90
31387;DHT22;69978;50.096;8.448;2023-05-09T13:27:28;19.70;99.90
31387;DHT22;69978;50.096;8.448;2023-05-09T13:29:54;19.90;99.90
31387;DHT22;69978;50.096;8.448;2023-05-09T13:32:20;19.90;99.90
31387;DHT22;69978;50.096;8.448;2023-05-09T13:34:45;19.90;99.90
31387;DHT22;69978;50.096;8.448;2023-05-09T13:37:11;20.00;99.90
31387;DHT22;69978;50.096;8.448;2023-05-09T13:39:36;20.00;99.90
31387;DHT22;69978;50.096;8.448;2023-05-09T13:42:02;20.00;99.90
31387;DHT22;69978;50.096;8.448;2023-05-09T13:44:28;20.10;99.90
31387;DHT22;69978;50.096;8.448;2023-05-09T13:46:54;20.00;99.90
31387;DHT22;69978;50.096;8.448;2023-05-09T13:49:21;20.10;99.90
31387;DHT22;69978;50.096;8.448;2023-05-09T13:51:47;20.10;99.90
31387;DHT22;69978;50.096;8.448;2023-05-09T13:54:13;20.10;99.90
31387;DHT22;69978;50.096;8.448;2023-05-09T13:56:42;20.00;99.90
31387;DHT22;69978;50.096;8.448;2023-05-09T13:59:08;20.00;99.90
31387;DHT22;69978;50.096;8.448;2023-05-09T14:01:34;20.10;99.90
31387;DHT22;69978;50.096;8.448;2023-05-09T14:04:00;20.10;99.90
31387;DHT22;69978;50.096;8.448;2023-05-09T14:06:26;20.20;99.90
31387;DHT22;69978;50.096;8.448;2023-05-09T14:08:51;20.40;99.90
31387;DHT22;69978;50.096;8.448;2023-05-09T14:11:17;20.60;99.90
31387;DHT22;69978;50.096;8.448;2023-05-09T14:13:43;20.70;99.90
31387;DHT22;69978;50.096;8.448;2023-05-09T14:16:08;20.90;99.90
31387;DHT22;69978;50.096;8.448;2023-05-09T14:18:34;21.00;99.90
31387;DHT22;69978;50.096;8.448;2023-05-09T14:21:00;21.10;99.90
31387;DHT22;69978;50.096;8.448;2023-05-09T14:23:26;21.10;99.90
31387;DHT22;69978;50.096;8.448;2023-05-09T14:25:51;21.00;99.90
31387;DHT22;69978;50.096;8.448;2023-05-09T14:28:17;20.90;99.90
31387;DHT22;69978;50.096;8.448;2023-05-09T14:30:45;20.70;99.90
31387;DHT22;69978;50.096;8.448;2023-05-09T14:33:11;20.70;99.90
31387;DHT22;69978;50.096;8.448;2023-05-09T14:35:37;20.50;99.90
31387;DHT22;69978;50.096;8.448;2023-05-09T14:38:03;20.40;99.90
31387;DHT22;69978;50.096;8.448;2023-05-09T14:40:28;20.30;99.90
31387;DHT22;69978;50.096;8.448;2023-05-09T14:42:57;20.20;99.90
31387;DHT22;69978;50.096;8.448;2023-05-09T14:45:23;20.20;99.90
31387;DHT22;69978;50.096;8.448;2023-05-09T14:47:49;20.20;99.90
31387;DHT22;69978;50.096;8.448;2023-05-09T14:50:15;20.20;99.90
31387;DHT22;69978;50.096;8.448;2023-05-09T14:52:41;20.20;99.90
31387;DHT22;69978;50.096;8.448;2023-05-09T14:55:08;20.30;99.90
31387;DHT22;69978;50.096;8.448;2023-05-09T14:57:34;20.30;99.90
31387;DHT22;69978;50.096;8.448;2023-05-09T14:59:59;20.30;99.90
31387;DHT22;69978;50.096;8.448;2023-05-09T15:02:25;20.40;99.90
31387;DHT22;69978;50.096;8.448;2023-05-09T15:04:51;20.40;99.90
31387;DHT22;69978;50.096;8.448;2023-05-09T15:07:17;20.40;99.90
31387;DHT22;69978;50.096;8.448;2023-05-09T15:09:42;20.40;99.90
31387;DHT22;69978;50.096;8.448;2023-05-09T15:12:08;20.50;99.90
31387;DHT22;69978;50.096;8.448;2023-05-09T15:14:34;20.50;99.90
31387;DHT22;69978;50.096;8.448;2023-05-09T15:16:59;20.50;99.90
31387;DHT22;69978;50.096;8.448;2023-05-09T15:19:28;20.40;99.90
31387;DHT22;69978;50.096;8.448;2023-05-09T15:21:57;20.40;99.90
31387;DHT22;69978;50.096;8.448;2023-05-09T15:24:23;20.30;99.90
31387;DHT22;69978;50.096;8.448;2023-05-09T15:26:48;20.30;99.90
31387;DHT22;69978;50.096;8.448;2023-05-09T15:29:14;20.20;99.90
31387;DHT22;69978;50.096;8.448;2023-05-09T15:31:39;20.30;99.90
31387;DHT22;69978;50.096;8.448;2023-05-09T15:34:05;20.20;99.90
31387;DHT22;69978;50.096;8.448;2023-05-09T15:36:31;20.30;99.90
31387;DHT22;69978;50.096;8.448;2023-05-09T15:38:58;20.30;99.90
31387;DHT22;69978;50.096;8.448;2023-05-09T15:41:24;20.30;99.90
31387;DHT22;69978;50.096;8.448;2023-05-09T15:43:50;20.30;99.90
31387;DHT22;69978;50.096;8.448;2023-05-09T15:46:16;20.20;99.90
31387;DHT22;69978;50.096;8.448;2023-05-09T15:48:41;20.20;99.90
31387;DHT22;69978;50.096;8.448;2023-05-09T15:51:07;20.20;99.90